sensor_id;sensor_type;location;lat;lon;timestamp;pressure;altitude;pressure_sealevel;temperature;humidity
85524;BME280;75932;48.616;9.270;2024-03-22T00:01:25;99127.00;;;6.44;91.25
85524;BME280;75932;48.616;9.270;2024-03-22T00:03:50;99123.09;;;6.36;91.82
85524;BME280;75932;48.616;9.270;2024-03-22T00:06:15;99123.25;;;6.40;91.89
85524;BME280;75932;48.616;9.270;2024-03-22T00:08:40;99122.91;;;6.32;91.15
85524;BME280;75932;48.616;9.270;2024-03-22T00:11:08;99118.34;;;6.28;91.62
85524;BME280;75932;48.616;9.270;2024-03-22T00:13:33;99118.16;;;6.24;92.00
85524;BME280;75932;48.616;9.270;2024-03-22T00:15:58;99111.25;;;6.13;92.07
85524;BME280;75932;48.616;9.270;2024-03-22T00:18:24;99108.34;;;6.18;90.73
85524;BME280;75932;48.616;9.270;2024-03-22T00:20:49;99107.19;;;6.10;90.21
85524;BME280;75932;48.616;9.270;2024-03-22T00:23:14;99105.84;;;6.08;90.86
85524;BME280;75932;48.616;9.270;2024-03-22T00:25:40;99105.00;;;5.99;91.24
85524;BME280;75932;48.616;9.270;2024-03-22T00:28:05;99118.94;;;5.93;92.06
85524;BME280;75932;48.616;9.270;2024-03-22T00:30:30;99118.09;;;5.93;91.80
85524;BME280;75932;48.616;9.270;2024-03-22T00:32:55;99124.69;;;5.83;91.21
85524;BME280;75932;48.616;9.270;2024-03-22T00:35:21;99115.09;;;5.81;90.90
85524;BME280;75932;48.616;9.270;2024-03-22T00:37:46;99115.34;;;5.70;91.17
85524;BME280;75932;48.616;9.270;2024-03-22T00:40:11;99112.16;;;5.77;90.93
85524;BME280;75932;48.616;9.270;2024-03-22T00:42:37;99116.16;;;5.71;92.12
85524;BME280;75932;48.616;9.270;2024-03-22T00:45:02;99105.34;;;5.61;91.58
85524;BME280;75932;48.616;9.270;2024-03-22T00:47:27;99105.13;;;5.48;91.27
85524;BME280;75932;48.616;9.270;2024-03-22T00:49:53;99109.94;;;5.43;91.02
85524;BME280;75932;48.616;9.270;2024-03-22T00:52:20;99110.53;;;5.40;90.82
85524;BME280;75932;48.616;9.270;2024-03-22T00:54:45;99103.53;;;5.34;91.73
85524;BME280;75932;48.616;9.270;2024-03-22T00:57:11;99091.59;;;5.24;91.30
85524;BME280;75932;48.616;9.270;2024-03-22T00:59:36;99088.41;;;5.31;91.60
85524;BME280;75932;48.616;9.270;2024-03-22T01:02:04;99101.00;;;5.23;91.66
85524;BME280;75932;48.616;9.270;2024-03-22T01:04:29;99086.13;;;5.10;91.32
85524;BME280;75932;48.616;9.270;2024-03-22T01:06:54;99084.25;;;5.20;91.72
85524;BME280;75932;48.616;9.270;2024-03-22T01:09:19;99079.28;;;5.08;92.94
85524;BME280;75932;48.616;9.270;2024-03-22T01:11:45;99073.69;;;4.99;93.16
85524;BME280;75932;48.616;9.270;2024-03-22T01:14:10;99090.34;;;5.08;92.80
85524;BME280;75932;48.616;9.270;2024-03-22T01:16:35;99073.84;;;5.17;92.26
85524;BME280;75932;48.616;9.270;2024-03-22T01:19:00;99081.03;;;5.04;92.25
85524;BME280;75932;48.616;9.270;2024-03-22T01:21:26;99069.44;;;4.93;91.72
85524;BME280;75932;48.616;9.270;2024-03-22T01:23:52;99071.25;;;4.84;92.69
85524;BME280;75932;48.616;9.270;2024-03-22T01:26:17;99064.13;;;4.83;93.60
85524;BME280;75932;48.616;9.270;2024-03-22T01:28:43;99059.03;;;4.76;93.94
85524;BME280;75932;48.616;9.270;2024-03-22T01:31:08;99049.63;;;4.77;94.20
85524;BME280;75932;48.616;9.270;2024-03-22T01:33:33;99057.81;;;4.82;93.81
85524;BME280;75932;48.616;9.270;2024-03-22T01:35:58;99054.53;;;4.80;93.82
85524;BME280;75932;48.616;9.270;2024-03-22T01:38:24;99061.47;;;4.78;93.52
85524;BME280;75932;48.616;9.270;2024-03-22T01:40:49;99054.47;;;4.72;93.51
85524;BME280;75932;48.616;9.270;2024-03-22T01:43:14;99011.38;;;4.48;94.26
85524;BME280;75932;48.616;9.270;2024-03-22T01:45:40;99051.19;;;4.69;93.49
85524;BME280;75932;48.616;9.270;2024-03-22T01:48:07;99046.41;;;4.61;93.69
85524;BME280;75932;48.616;9.270;2024-03-22T01:50:32;99037.63;;;4.59;93.72
85524;BME280;75932;48.616;9.270;2024-03-22T01:52:58;99034.34;;;4.57;93.32
85524;BME280;75932;48.616;9.270;2024-03-22T01:55:23;99033.72;;;4.60;93.51
85524;BME280;75932;48.616;9.270;2024-03-22T01:57:49;99035.47;;;4.70;93.41
85524;BME280;75932;48.616;9.270;2024-03-22T02:00:16;99033.63;;;4.65;94.10
85524;BME280;75932;48.616;9.270;2024-03-22T02:02:42;99042.00;;;4.60;94.20
85524;BME280;75932;48.616;9.270;2024-03-22T02:05:15;99038.56;;;4.55;93.77
85524;BME280;75932;48.616;9.270;2024-03-22T02:07:43;99017.94;;;4.38;93.57
85524;BME280;75932;48.616;9.270;2024-03-22T02:10:10;99030.78;;;4.43;93.59
85524;BME280;75932;48.616;9.270;2024-03-22T02:12:39;99031.41;;;4.40;92.41
85524;BME280;75932;48.616;9.270;2024-03-22T02:15:04;98985.13;;;4.14;92.12
85524;BME280;75932;48.616;9.270;2024-03-22T02:17:32;99024.81;;;4.27;93.07
85524;BME280;75932;48.616;9.270;2024-03-22T02:19:57;98994.78;;;4.12;92.96
85524;BME280;75932;48.616;9.270;2024-03-22T02:22:22;98992.25;;;4.15;92.61
85524;BME280;75932;48.616;9.270;2024-03-22T02:24:48;99022.94;;;4.22;92.50
85524;BME280;75932;48.616;9.270;2024-03-22T02:27:13;99013.28;;;4.25;93.50
85524;BME280;75932;48.616;9.270;2024-03-22T02:29:38;99013.97;;;4.30;92.75
85524;BME280;75932;48.616;9.270;2024-03-22T02:32:05;99012.13;;;4.26;93.32
85524;BME280;75932;48.616;9.270;2024-03-22T02:34:30;99006.84;;;4.29;94.45
85524;BME280;75932;48.616;9.270;2024-03-22T02:36:55;99013.78;;;4.27;94.20
85524;BME280;75932;48.616;9.270;2024-03-22T02:39:21;99007.44;;;4.26;94.60
85524;BME280;75932;48.616;9.270;2024-03-22T02:41:46;99017.44;;;4.22;94.15
85524;BME280;75932;48.616;9.270;2024-03-22T02:44:11;99014.16;;;4.20;94.43
85524;BME280;75932;48.616;9.270;2024-03-22T02:46:37;99015.00;;;4.21;93.87
85524;BME280;75932;48.616;9.270;2024-03-22T02:49:02;99003.97;;;4.21;94.89
85524;BME280;75932;48.616;9.270;2024-03-22T02:51:27;99004.69;;;4.13;94.28
85524;BME280;75932;48.616;9.270;2024-03-22T02:53:55;98971.75;;;3.94;93.42
85524;BME280;75932;48.616;9.270;2024-03-22T02:56:20;99002.03;;;4.07;93.63
85524;BME280;75932;48.616;9.270;2024-03-22T02:58:45;99004.09;;;4.02;93.60
85524;BME280;75932;48.616;9.270;2024-03-22T03:01:10;99003.78;;;4.03;93.99
85524;BME280;75932;48.616;9.270;2024-03-22T03:03:36;99000.09;;;4.08;94.92
85524;BME280;75932;48.616;9.270;2024-03-22T03:06:01;99000.09;;;4.08;94.73
85524;BME280;75932;48.616;9.270;2024-03-22T03:08:26;99000.09;;;4.08;94.64
85524;BME280;75932;48.616;9.270;2024-03-22T03:10:51;99005.09;;;4.06;94.17
85524;BME280;75932;48.616;9.270;2024-03-22T03:13:17;99003.38;;;4.10;93.94
85524;BME280;75932;48.616;9.270;2024-03-22T03:15:42;98994.19;;;4.15;93.15
85524;BME280;75932;48.616;9.270;2024-03-22T03:18:07;98984.50;;;4.03;94.05
85524;BME280;75932;48.616;9.270;2024-03-22T03:20:33;98981.63;;;3.95;94.47
85524;BME280;75932;48.616;9.270;2024-03-22T03:22:58;98978.19;;;3.89;94.39
85524;BME280;75932;48.616;9.270;2024-03-22T03:25:25;98984.50;;;3.89;93.73
85524;BME280;75932;48.616;9.270;2024-03-22T03:27:51;98960.84;;;3.75;94.45
85524;BME280;75932;48.616;9.270;2024-03-22T03:30:16;98977.97;;;3.85;94.67
85524;BME280;75932;48.616;9.270;2024-03-22T03:32:41;98979.91;;;3.99;94.67
85524;BME280;75932;48.616;9.270;2024-03-22T03:35:07;98977.47;;;3.97;94.34
85524;BME280;75932;48.616;9.270;2024-03-22T03:37:32;98975.31;;;4.08;93.65
85524;BME280;75932;48.616;9.270;2024-03-22T03:39:58;98988.88;;;4.04;93.42
85524;BME280;75932;48.616;9.270;2024-03-22T03:42:23;98974.59;;;4.02;93.50
85524;BME280;75932;48.616;9.270;2024-03-22T03:44:48;98973.50;;;4.03;93.53
85524;BME280;75932;48.616;9.270;2024-03-22T03:47:14;98966.88;;;3.91;93.49
85524;BME280;75932;48.616;9.270;2024-03-22T03:49:39;98974.81;;;3.92;94.58
85524;BME280;75932;48.616;9.270;2024-03-22T03:52:07;98969.22;;;3.97;94.78
85524;BME280;75932;48.616;9.270;2024-03-22T03:54:33;98964.72;;;4.01;94.42
85524;BME280;75932;48.616;9.270;2024-03-22T03:56:58;98972.34;;;4.04;94.23
85524;BME280;75932;48.616;9.270;2024-03-22T03:59:23;98964.41;;;4.03;93.65
85524;BME280;75932;48.616;9.270;2024-03-22T04:01:49;98950.94;;;3.87;94.39
85524;BME280;75932;48.616;9.270;2024-03-22T04:04:15;98970.00;;;3.84;94.47
85524;BME280;75932;48.616;9.270;2024-03-22T04:06:40;98965.13;;;3.81;94.88
85524;BME280;75932;48.616;9.270;2024-03-22T04:09:05;98970.31;;;3.82;93.64
85524;BME280;75932;48.616;9.270;2024-03-22T04:11:30;98961.56;;;3.80;93.96
85524;BME280;75932;48.616;9.270;2024-03-22T04:13:56;98966.25;;;3.80;94.06
85524;BME280;75932;48.616;9.270;2024-03-22T04:16:21;98966.25;;;3.80;94.13
85524;BME280;75932;48.616;9.270;2024-03-22T04:18:46;98962.25;;;3.72;93.79
85524;BME280;75932;48.616;9.270;2024-03-22T04:21:12;98963.88;;;3.73;93.76
85524;BME280;75932;48.616;9.270;2024-03-22T04:23:37;98973.97;;;3.64;94.23
85524;BME280;75932;48.616;9.270;2024-03-22T04:26:03;98927.06;;;3.41;94.28
85524;BME280;75932;48.616;9.270;2024-03-22T04:28:28;98969.09;;;3.61;93.36
85524;BME280;75932;48.616;9.270;2024-03-22T04:31:05;98972.25;;;3.54;94.12
85524;BME280;75932;48.616;9.270;2024-03-22T04:33:31;98973.56;;;3.57;93.27
85524;BME280;75932;48.616;9.270;2024-03-22T04:35:58;98983.94;;;3.60;93.71
85524;BME280;75932;48.616;9.270;2024-03-22T04:38:24;98947.66;;;3.44;93.59
85524;BME280;75932;48.616;9.270;2024-03-22T04:40:50;98983.03;;;3.51;93.97
85524;BME280;75932;48.616;9.270;2024-03-22T04:43:15;98975.56;;;3.51;93.81
85524;BME280;75932;48.616;9.270;2024-03-22T04:45:43;98973.56;;;3.57;93.77
85524;BME280;75932;48.616;9.270;2024-03-22T04:48:09;98976.81;;;3.59;93.13
85524;BME280;75932;48.616;9.270;2024-03-22T04:50:35;98976.19;;;3.48;94.13
85524;BME280;75932;48.616;9.270;2024-03-22T04:53:01;98977.53;;;3.51;94.58
85524;BME280;75932;48.616;9.270;2024-03-22T04:55:26;98982.63;;;3.57;94.24
85524;BME280;75932;48.616;9.270;2024-03-22T04:57:54;98959.06;;;3.51;94.29
85524;BME280;75932;48.616;9.270;2024-03-22T05:00:19;98970.63;;;3.67;93.95
85524;BME280;75932;48.616;9.270;2024-03-22T05:02:45;98975.50;;;3.70;93.83
85524;BME280;75932;48.616;9.270;2024-03-22T05:05:11;98988.75;;;3.82;94.52
85524;BME280;75932;48.616;9.270;2024-03-22T05:07:36;98989.06;;;3.94;93.96
85524;BME280;75932;48.616;9.270;2024-03-22T05:10:03;98982.97;;;3.97;93.56
85524;BME280;75932;48.616;9.270;2024-03-22T05:12:28;98982.28;;;4.05;93.07
85524;BME280;75932;48.616;9.270;2024-03-22T05:14:54;98951.75;;;3.88;93.15
85524;BME280;75932;48.616;9.270;2024-03-22T05:17:20;98982.28;;;4.05;92.85
85524;BME280;75932;48.616;9.270;2024-03-22T05:19:45;98975.41;;;4.03;93.45
85524;BME280;75932;48.616;9.270;2024-03-22T05:22:10;98949.84;;;3.88;92.71
85524;BME280;75932;48.616;9.270;2024-03-22T05:24:36;98971.56;;;4.04;93.05
85524;BME280;75932;48.616;9.270;2024-03-22T05:27:01;98963.28;;;4.04;93.14
85524;BME280;75932;48.616;9.270;2024-03-22T05:29:26;98968.28;;;4.02;93.05
85524;BME280;75932;48.616;9.270;2024-03-22T05:31:51;98967.06;;;4.08;93.20
85524;BME280;75932;48.616;9.270;2024-03-22T05:34:18;98958.38;;;4.15;92.66
85524;BME280;75932;48.616;9.270;2024-03-22T05:36:44;98963.25;;;4.18;92.52
85524;BME280;75932;48.616;9.270;2024-03-22T05:39:09;98958.28;;;4.20;92.42
85524;BME280;75932;48.616;9.270;2024-03-22T05:41:37;98961.44;;;4.27;92.38
85524;BME280;75932;48.616;9.270;2024-03-22T05:44:03;98961.09;;;4.42;91.64
85524;BME280;75932;48.616;9.270;2024-03-22T05:46:29;98963.31;;;4.54;90.93
85524;BME280;75932;48.616;9.270;2024-03-22T05:48:57;98957.38;;;4.61;90.77
85524;BME280;75932;48.616;9.270;2024-03-22T05:51:24;98950.09;;;4.65;91.11
85524;BME280;75932;48.616;9.270;2024-03-22T05:53:49;98967.00;;;4.86;90.58
85524;BME280;75932;48.616;9.270;2024-03-22T05:56:14;98958.59;;;5.36;89.31
85524;BME280;75932;48.616;9.270;2024-03-22T05:58:40;98939.22;;;5.59;88.10
85524;BME280;75932;48.616;9.270;2024-03-22T06:01:05;98943.72;;;5.86;86.17
85524;BME280;75932;48.616;9.270;2024-03-22T06:03:31;98943.81;;;6.03;86.28
85524;BME280;75932;48.616;9.270;2024-03-22T06:05:58;98940.25;;;6.03;85.71
85524;BME280;75932;48.616;9.270;2024-03-22T06:08:25;98935.69;;;5.98;85.84
85524;BME280;75932;48.616;9.270;2024-03-22T06:10:52;98940.94;;;6.17;85.84
85524;BME280;75932;48.616;9.270;2024-03-22T06:13:18;98920.50;;;6.44;84.00
85524;BME280;75932;48.616;9.270;2024-03-22T06:15:44;98902.56;;;7.20;80.79
85524;BME280;75932;48.616;9.270;2024-03-22T06:18:12;98925.91;;;8.05;78.30
85524;BME280;75932;48.616;9.270;2024-03-22T06:20:37;98924.22;;;8.12;77.71
85524;BME280;75932;48.616;9.270;2024-03-22T06:23:02;98926.81;;;8.17;77.08
85524;BME280;75932;48.616;9.270;2024-03-22T06:25:28;98913.19;;;10.00;71.80
85524;BME280;75932;48.616;9.270;2024-03-22T06:27:53;98915.28;;;10.28;69.74
85524;BME280;75932;48.616;9.270;2024-03-22T06:30:18;98918.25;;;11.72;64.77
85524;BME280;75932;48.616;9.270;2024-03-22T06:32:43;98914.38;;;11.17;66.96
85524;BME280;75932;48.616;9.270;2024-03-22T06:35:09;98911.94;;;10.47;68.47
85524;BME280;75932;48.616;9.270;2024-03-22T06:37:37;98920.25;;;10.71;68.79
85524;BME280;75932;48.616;9.270;2024-03-22T06:40:02;98922.44;;;11.94;64.37
85524;BME280;75932;48.616;9.270;2024-03-22T06:42:28;98910.69;;;12.72;61.22
85524;BME280;75932;48.616;9.270;2024-03-22T06:44:53;98920.78;;;13.15;59.75
85524;BME280;75932;48.616;9.270;2024-03-22T06:47:18;98916.59;;;13.25;58.37
85524;BME280;75932;48.616;9.270;2024-03-22T06:49:46;98910.53;;;12.84;60.03
85524;BME280;75932;48.616;9.270;2024-03-22T06:52:11;98917.81;;;12.18;62.16
85524;BME280;75932;48.616;9.270;2024-03-22T06:54:36;98919.38;;;13.05;59.57
85524;BME280;75932;48.616;9.270;2024-03-22T06:57:02;98908.47;;;13.82;57.46
85524;BME280;75932;48.616;9.270;2024-03-22T06:59:27;98904.56;;;13.63;57.57
85524;BME280;75932;48.616;9.270;2024-03-22T07:01:52;98910.03;;;14.29;55.56
85524;BME280;75932;48.616;9.270;2024-03-22T07:04:18;98900.81;;;15.12;56.92
85524;BME280;75932;48.616;9.270;2024-03-22T07:06:43;98899.53;;;15.77;51.76
85524;BME280;75932;48.616;9.270;2024-03-22T07:09:08;98902.13;;;16.56;51.08
85524;BME280;75932;48.616;9.270;2024-03-22T07:11:33;98903.59;;;16.90;48.69
85524;BME280;75932;48.616;9.270;2024-03-22T07:13:59;98895.78;;;16.66;48.26
85524;BME280;75932;48.616;9.270;2024-03-22T07:16:24;98898.88;;;16.46;49.62
85524;BME280;75932;48.616;9.270;2024-03-22T07:18:49;98895.06;;;16.80;49.66
85524;BME280;75932;48.616;9.270;2024-03-22T07:21:15;98898.59;;;17.53;46.91
85524;BME280;75932;48.616;9.270;2024-03-22T07:23:40;98867.28;;;17.80;46.42
85524;BME280;75932;48.616;9.270;2024-03-22T07:26:06;98888.63;;;17.99;45.21
85524;BME280;75932;48.616;9.270;2024-03-22T07:28:33;98886.19;;;17.80;46.02
85524;BME280;75932;48.616;9.270;2024-03-22T07:30:58;98887.78;;;18.52;45.16
85524;BME280;75932;48.616;9.270;2024-03-22T07:33:23;98882.50;;;18.80;44.21
85524;BME280;75932;48.616;9.270;2024-03-22T07:35:49;98875.66;;;18.81;43.76
85524;BME280;75932;48.616;9.270;2024-03-22T07:38:14;98880.84;;;18.96;43.06
85524;BME280;75932;48.616;9.270;2024-03-22T07:40:39;98883.88;;;19.42;41.84
85524;BME280;75932;48.616;9.270;2024-03-22T07:43:04;98877.13;;;19.88;42.17
85524;BME280;75932;48.616;9.270;2024-03-22T07:45:35;98879.53;;;19.23;42.23
85524;BME280;75932;48.616;9.270;2024-03-22T07:48:01;98874.00;;;19.71;42.27
85524;BME280;75932;48.616;9.270;2024-03-22T07:50:27;98869.78;;;19.31;42.68
85524;BME280;75932;48.616;9.270;2024-03-22T07:52:52;98844.69;;;18.55;43.51
85524;BME280;75932;48.616;9.270;2024-03-22T07:55:17;98867.97;;;18.77;43.33
85524;BME280;75932;48.616;9.270;2024-03-22T07:57:43;98870.81;;;18.67;43.60
85524;BME280;75932;48.616;9.270;2024-03-22T08:00:09;98867.66;;;18.43;44.24
85524;BME280;75932;48.616;9.270;2024-03-22T08:02:34;98860.34;;;18.85;43.05
85524;BME280;75932;48.616;9.270;2024-03-22T08:05:00;98858.03;;;18.15;44.47
85524;BME280;75932;48.616;9.270;2024-03-22T08:07:27;98859.13;;;18.86;43.79
85524;BME280;75932;48.616;9.270;2024-03-22T08:09:52;98859.59;;;18.56;43.61
85524;BME280;75932;48.616;9.270;2024-03-22T08:12:17;98851.72;;;19.25;42.65
85524;BME280;75932;48.616;9.270;2024-03-22T08:14:44;98850.03;;;19.34;42.75
85524;BME280;75932;48.616;9.270;2024-03-22T08:17:10;98859.09;;;19.71;42.19
85524;BME280;75932;48.616;9.270;2024-03-22T08:19:36;98848.19;;;19.69;42.57
85524;BME280;75932;48.616;9.270;2024-03-22T08:22:02;98859.53;;;20.18;41.24
85524;BME280;75932;48.616;9.270;2024-03-22T08:24:27;98865.13;;;20.25;41.07
85524;BME280;75932;48.616;9.270;2024-03-22T08:26:52;98861.81;;;20.75;40.38
85524;BME280;75932;48.616;9.270;2024-03-22T08:29:18;98856.09;;;21.13;39.15
85524;BME280;75932;48.616;9.270;2024-03-22T08:31:44;98849.47;;;20.13;40.12
85524;BME280;75932;48.616;9.270;2024-03-22T08:34:09;98855.59;;;19.45;41.73
85524;BME280;75932;48.616;9.270;2024-03-22T08:36:34;98820.81;;;18.92;43.48
85524;BME280;75932;48.616;9.270;2024-03-22T08:39:00;98840.84;;;19.16;43.87
85524;BME280;75932;48.616;9.270;2024-03-22T08:41:25;98831.63;;;19.78;41.38
85524;BME280;75932;48.616;9.270;2024-03-22T08:43:51;98825.09;;;19.29;42.75
85524;BME280;75932;48.616;9.270;2024-03-22T08:46:16;98822.44;;;18.93;44.11
85524;BME280;75932;48.616;9.270;2024-03-22T08:48:42;98826.69;;;19.86;42.26
85524;BME280;75932;48.616;9.270;2024-03-22T08:51:07;98817.78;;;20.36;41.09
85524;BME280;75932;48.616;9.270;2024-03-22T08:53:32;98811.81;;;20.27;40.86
85524;BME280;75932;48.616;9.270;2024-03-22T08:55:58;98814.44;;;20.45;41.18
85524;BME280;75932;48.616;9.270;2024-03-22T08:58:24;98809.97;;;19.61;41.84
85524;BME280;75932;48.616;9.270;2024-03-22T09:00:49;98798.19;;;19.14;42.96
85524;BME280;75932;48.616;9.270;2024-03-22T09:03:14;98807.19;;;20.03;43.30
85524;BME280;75932;48.616;9.270;2024-03-22T09:05:40;98798.44;;;20.69;40.89
85524;BME280;75932;48.616;9.270;2024-03-22T09:08:06;98798.50;;;20.24;40.42
85524;BME280;75932;48.616;9.270;2024-03-22T09:10:32;98798.47;;;20.31;41.37
85524;BME280;75932;48.616;9.270;2024-03-22T09:12:57;98772.13;;;20.00;41.21
85524;BME280;75932;48.616;9.270;2024-03-22T09:15:23;98783.66;;;19.71;42.03
85524;BME280;75932;48.616;9.270;2024-03-22T09:17:49;98792.84;;;20.28;42.89
85524;BME280;75932;48.616;9.270;2024-03-22T09:20:15;98790.41;;;20.30;43.35
85524;BME280;75932;48.616;9.270;2024-03-22T09:22:40;98787.72;;;20.12;41.16
85524;BME280;75932;48.616;9.270;2024-03-22T09:25:06;98784.50;;;19.65;43.26
85524;BME280;75932;48.616;9.270;2024-03-22T09:27:32;98775.72;;;19.52;43.27
85524;BME280;75932;48.616;9.270;2024-03-22T09:29:58;98774.63;;;19.35;44.15
85524;BME280;75932;48.616;9.270;2024-03-22T09:32:23;98768.06;;;18.93;43.23
85524;BME280;75932;48.616;9.270;2024-03-22T09:34:49;98764.13;;;18.69;44.96
85524;BME280;75932;48.616;9.270;2024-03-22T09:37:15;98765.66;;;18.95;44.26
85524;BME280;75932;48.616;9.270;2024-03-22T09:39:40;98762.34;;;18.01;46.60
85524;BME280;75932;48.616;9.270;2024-03-22T09:42:06;98750.13;;;18.47;46.58
85524;BME280;75932;48.616;9.270;2024-03-22T09:44:32;98742.50;;;18.44;45.27
85524;BME280;75932;48.616;9.270;2024-03-22T09:46:59;98744.25;;;17.84;47.30
85524;BME280;75932;48.616;9.270;2024-03-22T09:49:25;98735.38;;;17.89;45.91
85524;BME280;75932;48.616;9.270;2024-03-22T09:51:51;98738.50;;;18.34;46.71
85524;BME280;75932;48.616;9.270;2024-03-22T09:54:17;98731.97;;;18.59;45.44
85524;BME280;75932;48.616;9.270;2024-03-22T09:56:43;98734.56;;;18.14;45.99
85524;BME280;75932;48.616;9.270;2024-03-22T09:59:11;98721.97;;;18.36;45.45
85524;BME280;75932;48.616;9.270;2024-03-22T10:01:36;98714.06;;;17.92;44.88
85524;BME280;75932;48.616;9.270;2024-03-22T10:04:02;98705.25;;;17.22;45.81
85524;BME280;75932;48.616;9.270;2024-03-22T10:06:29;98693.94;;;16.75;46.46
85524;BME280;75932;48.616;9.270;2024-03-22T10:08:58;98695.91;;;16.67;47.11
85524;BME280;75932;48.616;9.270;2024-03-22T10:11:26;98685.94;;;16.84;46.56
85524;BME280;75932;48.616;9.270;2024-03-22T10:13:51;98691.22;;;17.29;46.27
85524;BME280;75932;48.616;9.270;2024-03-22T10:16:17;98678.75;;;17.44;45.31
85524;BME280;75932;48.616;9.270;2024-03-22T10:18:42;98670.66;;;17.68;46.11
85524;BME280;75932;48.616;9.270;2024-03-22T10:21:07;98661.81;;;17.66;43.97
85524;BME280;75932;48.616;9.270;2024-03-22T10:23:33;98683.00;;;18.24;45.07
85524;BME280;75932;48.616;9.270;2024-03-22T10:26:01;98677.69;;;18.44;43.30
85524;BME280;75932;48.616;9.270;2024-03-22T10:28:27;98677.97;;;18.68;41.74
85524;BME280;75932;48.616;9.270;2024-03-22T10:30:53;98670.28;;;18.72;42.12
85524;BME280;75932;48.616;9.270;2024-03-22T10:33:20;98660.31;;;18.56;42.99
85524;BME280;75932;48.616;9.270;2024-03-22T10:35:52;98663.50;;;18.62;41.49
85524;BME280;75932;48.616;9.270;2024-03-22T10:38:21;98625.13;;;18.09;42.70
85524;BME280;75932;48.616;9.270;2024-03-22T10:40:47;98655.94;;;18.41;42.25
85524;BME280;75932;48.616;9.270;2024-03-22T10:43:16;98651.75;;;18.71;41.60
85524;BME280;75932;48.616;9.270;2024-03-22T10:45:42;98646.00;;;18.92;39.89
85524;BME280;75932;48.616;9.270;2024-03-22T10:48:11;98648.50;;;18.80;40.64
85524;BME280;75932;48.616;9.270;2024-03-22T10:50:41;98640.13;;;18.65;40.52
85524;BME280;75932;48.616;9.270;2024-03-22T10:53:12;98634.97;;;18.49;41.29
85524;BME280;75932;48.616;9.270;2024-03-22T10:55:45;98635.28;;;18.69;40.18
85524;BME280;75932;48.616;9.270;2024-03-22T10:58:20;98629.19;;;18.74;40.38
85524;BME280;75932;48.616;9.270;2024-03-22T11:00:46;98621.53;;;18.75;40.65
85524;BME280;75932;48.616;9.270;2024-03-22T11:03:13;98614.00;;;18.54;40.23
85524;BME280;75932;48.616;9.270;2024-03-22T11:05:48;98597.63;;;18.34;41.60
85524;BME280;75932;48.616;9.270;2024-03-22T11:08:24;98610.13;;;18.30;40.78
85524;BME280;75932;48.616;9.270;2024-03-22T11:10:50;98608.13;;;18.30;42.33
85524;BME280;75932;48.616;9.270;2024-03-22T11:13:16;98575.28;;;17.99;41.62
85524;BME280;75932;48.616;9.270;2024-03-22T11:15:42;98600.38;;;18.45;42.23
85524;BME280;75932;48.616;9.270;2024-03-22T11:18:07;98583.94;;;18.40;40.80
85524;BME280;75932;48.616;9.270;2024-03-22T11:20:36;98599.84;;;18.65;40.56
85524;BME280;75932;48.616;9.270;2024-03-22T11:23:06;98596.69;;;18.63;41.72
85524;BME280;75932;48.616;9.270;2024-03-22T11:25:32;98591.38;;;18.68;40.95
85524;BME280;75932;48.616;9.270;2024-03-22T11:27:59;98581.91;;;18.96;40.42
85524;BME280;75932;48.616;9.270;2024-03-22T11:30:26;98577.59;;;18.85;41.55
85524;BME280;75932;48.616;9.270;2024-03-22T11:32:53;98571.50;;;18.90;40.15
85524;BME280;75932;48.616;9.270;2024-03-22T11:35:19;98552.56;;;18.90;39.05
85524;BME280;75932;48.616;9.270;2024-03-22T11:37:45;98565.72;;;19.46;39.11
85524;BME280;75932;48.616;9.270;2024-03-22T11:40:11;98562.34;;;19.24;38.20
85524;BME280;75932;48.616;9.270;2024-03-22T11:42:41;98532.09;;;18.83;37.22
85524;BME280;75932;48.616;9.270;2024-03-22T11:45:11;98557.50;;;19.24;39.34
85524;BME280;75932;48.616;9.270;2024-03-22T11:47:37;98552.69;;;19.59;38.74
85524;BME280;75932;48.616;9.270;2024-03-22T11:50:02;98529.81;;;19.50;36.68
85524;BME280;75932;48.616;9.270;2024-03-22T11:52:29;98540.81;;;19.41;37.09
85524;BME280;75932;48.616;9.270;2024-03-22T11:54:54;98538.22;;;19.91;36.98
85524;BME280;75932;48.616;9.270;2024-03-22T11:57:21;98507.75;;;20.06;36.79
85524;BME280;75932;48.616;9.270;2024-03-22T11:59:46;98522.09;;;20.46;37.04
85524;BME280;75932;48.616;9.270;2024-03-22T12:02:11;98522.72;;;20.85;37.56
85524;BME280;75932;48.616;9.270;2024-03-22T12:04:41;98518.31;;;21.04;37.02
85524;BME280;75932;48.616;9.270;2024-03-22T12:07:13;98524.63;;;20.68;35.69
85524;BME280;75932;48.616;9.270;2024-03-22T12:09:38;98509.19;;;20.18;37.00
85524;BME280;75932;48.616;9.270;2024-03-22T12:12:05;98515.63;;;19.91;38.68
85524;BME280;75932;48.616;9.270;2024-03-22T12:14:33;98448.28;;;19.59;37.08
85524;BME280;75932;48.616;9.270;2024-03-22T12:16:58;98503.59;;;20.14;37.34
85524;BME280;75932;48.616;9.270;2024-03-22T12:19:24;98498.38;;;19.48;37.45
85524;BME280;75932;48.616;9.270;2024-03-22T12:21:49;98428.94;;;19.27;39.32
85524;BME280;75932;48.616;9.270;2024-03-22T12:24:14;98485.66;;;19.67;37.53
85524;BME280;75932;48.616;9.270;2024-03-22T12:26:40;98481.63;;;19.68;37.14
85524;BME280;75932;48.616;9.270;2024-03-22T12:29:05;98462.06;;;19.84;36.80
85524;BME280;75932;48.616;9.270;2024-03-22T12:31:31;98469.53;;;19.67;36.55
85524;BME280;75932;48.616;9.270;2024-03-22T12:33:57;98469.03;;;20.03;37.12
85524;BME280;75932;48.616;9.270;2024-03-22T12:36:22;98452.91;;;20.54;36.05
85524;BME280;75932;48.616;9.270;2024-03-22T12:38:47;98449.28;;;20.54;34.56
85524;BME280;75932;48.616;9.270;2024-03-22T12:41:13;98448.91;;;20.52;35.64
85524;BME280;75932;48.616;9.270;2024-03-22T12:43:38;98447.78;;;20.46;34.31
85524;BME280;75932;48.616;9.270;2024-03-22T12:46:03;98442.41;;;20.31;33.97
85524;BME280;75932;48.616;9.270;2024-03-22T12:48:28;98441.50;;;20.11;34.86
85524;BME280;75932;48.616;9.270;2024-03-22T12:50:54;98433.75;;;20.42;35.46
85524;BME280;75932;48.616;9.270;2024-03-22T12:53:19;98431.16;;;20.51;34.71
85524;BME280;75932;48.616;9.270;2024-03-22T12:55:44;98428.97;;;20.12;35.13
85524;BME280;75932;48.616;9.270;2024-03-22T12:58:10;98426.81;;;20.47;35.30